sensor_id;sensor_type;location;lat;lon;timestamp;pressure;altitude;pressure_sealevel;temperature
21210;BMP180;10762;42.206;25.326;2022-07-10T00:01:11;99042.00;;;24.90
21210;BMP180;10762;42.206;25.326;2022-07-10T00:03:37;99049.00;;;24.80
21210;BMP180;10762;42.206;25.326;2022-07-10T00:06:03;99033.00;;;24.80
21210;BMP180;10762;42.206;25.326;2022-07-10T00:08:29;99040.00;;;24.80
21210;BMP180;10762;42.206;25.326;2022-07-10T00:10:55;99033.00;;;24.80
21210;BMP180;10762;42.206;25.326;2022-07-10T00:13:21;99043.00;;;24.80
21210;BMP180;10762;42.206;25.326;2022-07-10T00:15:47;99041.00;;;24.80
21210;BMP180;10762;42.206;25.326;2022-07-10T00:18:12;99052.00;;;24.70
21210;BMP180;10762;42.206;25.326;2022-07-10T00:20:38;99042.00;;;24.70
21210;BMP180;10762;42.206;25.326;2022-07-10T00:23:04;99030.00;;;24.60
21210;BMP180;10762;42.206;25.326;2022-07-10T00:25:30;99038.00;;;24.60
21210;BMP180;10762;42.206;25.326;2022-07-10T00:27:56;99032.00;;;24.60
21210;BMP180;10762;42.206;25.326;2022-07-10T00:30:21;99023.00;;;24.60
21210;BMP180;10762;42.206;25.326;2022-07-10T00:32:47;99029.00;;;24.60
21210;BMP180;10762;42.206;25.326;2022-07-10T00:35:13;98979.00;;;24.60
21210;BMP180;10762;42.206;25.326;2022-07-10T00:37:42;99040.00;;;24.50
21210;BMP180;10762;42.206;25.326;2022-07-10T00:40:08;99040.00;;;24.40
21210;BMP180;10762;42.206;25.326;2022-07-10T00:43:05;99047.00;;;24.50
21210;BMP180;10762;42.206;25.326;2022-07-10T01:17:32;99021.00;;;24.00
21210;BMP180;10762;42.206;25.326;2022-07-10T01:20:04;99029.00;;;24.00
21210;BMP180;10762;42.206;25.326;2022-07-10T01:22:30;99021.00;;;24.00
21210;BMP180;10762;42.206;25.326;2022-07-10T01:24:56;99021.00;;;24.00
21210;BMP180;10762;42.206;25.326;2022-07-10T01:27:22;99021.00;;;23.90
21210;BMP180;10762;42.206;25.326;2022-07-10T01:29:47;99011.00;;;23.90
21210;BMP180;10762;42.206;25.326;2022-07-10T01:32:14;99004.00;;;23.90
21210;BMP180;10762;42.206;25.326;2022-07-10T01:34:40;98998.00;;;23.90
21210;BMP180;10762;42.206;25.326;2022-07-10T01:37:05;99010.00;;;24.00
21210;BMP180;10762;42.206;25.326;2022-07-10T01:39:31;99006.00;;;23.90
21210;BMP180;10762;42.206;25.326;2022-07-10T01:41:57;99010.00;;;23.80
21210;BMP180;10762;42.206;25.326;2022-07-10T01:44:23;99004.00;;;23.70
21210;BMP180;10762;42.206;25.326;2022-07-10T01:46:48;99009.00;;;23.60
21210;BMP180;10762;42.206;25.326;2022-07-10T01:49:14;99010.00;;;23.70
21210;BMP180;10762;42.206;25.326;2022-07-10T01:51:40;99008.00;;;23.60
21210;BMP180;10762;42.206;25.326;2022-07-10T01:54:07;99006.00;;;23.60
21210;BMP180;10762;42.206;25.326;2022-07-10T01:56:33;99004.00;;;23.60
21210;BMP180;10762;42.206;25.326;2022-07-10T01:58:59;99005.00;;;23.60
21210;BMP180;10762;42.206;25.326;2022-07-10T02:01:26;99005.00;;;23.50
21210;BMP180;10762;42.206;25.326;2022-07-10T02:03:53;99004.00;;;23.40
21210;BMP180;10762;42.206;25.326;2022-07-10T02:06:37;98995.00;;;23.30
21210;BMP180;10762;42.206;25.326;2022-07-10T02:09:03;99004.00;;;23.20
21210;BMP180;10762;42.206;25.326;2022-07-10T02:11:28;99002.00;;;23.20
21210;BMP180;10762;42.206;25.326;2022-07-10T02:13:54;98991.00;;;23.30
21210;BMP180;10762;42.206;25.326;2022-07-10T02:16:20;98985.00;;;23.30
21210;BMP180;10762;42.206;25.326;2022-07-10T02:18:45;98994.00;;;23.30
21210;BMP180;10762;42.206;25.326;2022-07-10T02:21:11;98992.00;;;23.20
21210;BMP180;10762;42.206;25.326;2022-07-10T02:23:37;98990.00;;;23.10
21210;BMP180;10762;42.206;25.326;2022-07-10T02:26:06;98993.00;;;23.10
21210;BMP180;10762;42.206;25.326;2022-07-10T02:28:32;98986.00;;;23.00
21210;BMP180;10762;42.206;25.326;2022-07-10T02:30:58;98990.00;;;23.10
21210;BMP180;10762;42.206;25.326;2022-07-10T02:33:24;98990.00;;;23.10
21210;BMP180;10762;42.206;25.326;2022-07-10T02:35:50;98987.00;;;23.10
21210;BMP180;10762;42.206;25.326;2022-07-10T02:38:16;98985.00;;;23.20
21210;BMP180;10762;42.206;25.326;2022-07-10T02:40:42;98987.00;;;23.20
21210;BMP180;10762;42.206;25.326;2022-07-10T02:43:08;98996.00;;;23.10
21210;BMP180;10762;42.206;25.326;2022-07-10T02:45:33;98995.00;;;23.00
21210;BMP180;10762;42.206;25.326;2022-07-10T02:47:59;99000.00;;;23.00
21210;BMP180;10762;42.206;25.326;2022-07-10T02:50:25;98989.00;;;22.90
21210;BMP180;10762;42.206;25.326;2022-07-10T02:52:51;98992.00;;;22.90
21210;BMP180;10762;42.206;25.326;2022-07-10T02:55:16;98992.00;;;22.80
21210;BMP180;10762;42.206;25.326;2022-07-10T02:57:42;98983.00;;;22.80
21210;BMP180;10762;42.206;25.326;2022-07-10T03:00:09;98985.00;;;22.80
21210;BMP180;10762;42.206;25.326;2022-07-10T03:02:35;98973.00;;;22.80
21210;BMP180;10762;42.206;25.326;2022-07-10T03:05:00;98982.00;;;22.80
21210;BMP180;10762;42.206;25.326;2022-07-10T03:07:26;98987.00;;;22.80
21210;BMP180;10762;42.206;25.326;2022-07-10T03:09:52;98988.00;;;22.80
21210;BMP180;10762;42.206;25.326;2022-07-10T03:12:19;98991.00;;;22.70
21210;BMP180;10762;42.206;25.326;2022-07-10T03:14:44;98995.00;;;22.70
21210;BMP180;10762;42.206;25.326;2022-07-10T03:17:10;98992.00;;;22.70
21210;BMP180;10762;42.206;25.326;2022-07-10T03:19:36;98985.00;;;22.80
21210;BMP180;10762;42.206;25.326;2022-07-10T03:22:02;98988.00;;;22.70
21210;BMP180;10762;42.206;25.326;2022-07-10T03:24:28;98992.00;;;22.80
21210;BMP180;10762;42.206;25.326;2022-07-10T03:26:53;98987.00;;;22.80
21210;BMP180;10762;42.206;25.326;2022-07-10T03:29:19;98983.00;;;22.80
21210;BMP180;10762;42.206;25.326;2022-07-10T03:31:45;98987.00;;;22.80
21210;BMP180;10762;42.206;25.326;2022-07-10T03:34:10;98991.00;;;22.80
21210;BMP180;10762;42.206;25.326;2022-07-10T03:36:36;98989.00;;;22.80
21210;BMP180;10762;42.206;25.326;2022-07-10T03:39:02;98988.00;;;22.70
21210;BMP180;10762;42.206;25.326;2022-07-10T03:41:28;98984.00;;;22.70
21210;BMP180;10762;42.206;25.326;2022-07-10T03:43:53;98992.00;;;22.60
21210;BMP180;10762;42.206;25.326;2022-07-10T03:46:19;98989.00;;;22.70
21210;BMP180;10762;42.206;25.326;2022-07-10T03:48:45;98985.00;;;22.80
21210;BMP180;10762;42.206;25.326;2022-07-10T03:51:11;98988.00;;;22.80
21210;BMP180;10762;42.206;25.326;2022-07-10T03:53:37;98990.00;;;22.70
21210;BMP180;10762;42.206;25.326;2022-07-10T03:56:03;98995.00;;;22.70
21210;BMP180;10762;42.206;25.326;2022-07-10T03:58:30;98997.00;;;22.80
21210;BMP180;10762;42.206;25.326;2022-07-10T04:00:56;98994.00;;;22.80
21210;BMP180;10762;42.206;25.326;2022-07-10T04:03:22;98992.00;;;22.80
21210;BMP180;10762;42.206;25.326;2022-07-10T04:05:47;98996.00;;;22.90
21210;BMP180;10762;42.206;25.326;2022-07-10T04:08:13;99005.00;;;23.00
21210;BMP180;10762;42.206;25.326;2022-07-10T04:10:39;98984.00;;;23.10
21210;BMP180;10762;42.206;25.326;2022-07-10T04:13:05;99003.00;;;23.30
21210;BMP180;10762;42.206;25.326;2022-07-10T04:15:31;99002.00;;;23.40
21210;BMP180;10762;42.206;25.326;2022-07-10T04:17:56;99008.00;;;23.40
21210;BMP180;10762;42.206;25.326;2022-07-10T04:20:23;99008.00;;;23.60
21210;BMP180;10762;42.206;25.326;2022-07-10T04:22:50;99012.00;;;23.70
21210;BMP180;10762;42.206;25.326;2022-07-10T04:25:16;99014.00;;;23.80
21210;BMP180;10762;42.206;25.326;2022-07-10T04:27:42;99022.00;;;23.90
21210;BMP180;10762;42.206;25.326;2022-07-10T04:30:08;99013.00;;;24.00
21210;BMP180;10762;42.206;25.326;2022-07-10T04:32:34;99022.00;;;24.10
21210;BMP180;10762;42.206;25.326;2022-07-10T04:35:00;99016.00;;;24.20
21210;BMP180;10762;42.206;25.326;2022-07-10T04:37:28;99008.00;;;24.30
21210;BMP180;10762;42.206;25.326;2022-07-10T04:39:55;99002.00;;;24.50
21210;BMP180;10762;42.206;25.326;2022-07-10T04:42:20;99015.00;;;24.60
21210;BMP180;10762;42.206;25.326;2022-07-10T04:44:46;99014.00;;;24.60
21210;BMP180;10762;42.206;25.326;2022-07-10T04:47:12;99023.00;;;24.80
21210;BMP180;10762;42.206;25.326;2022-07-10T04:49:38;99022.00;;;24.90
21210;BMP180;10762;42.206;25.326;2022-07-10T04:52:04;99024.00;;;25.00
21210;BMP180;10762;42.206;25.326;2022-07-10T04:54:30;99020.00;;;25.10
21210;BMP180;10762;42.206;25.326;2022-07-10T04:56:55;99016.00;;;25.20
21210;BMP180;10762;42.206;25.326;2022-07-10T04:59:21;99023.00;;;25.30
21210;BMP180;10762;42.206;25.326;2022-07-10T05:01:47;99018.00;;;25.50
21210;BMP180;10762;42.206;25.326;2022-07-10T05:04:13;99023.00;;;25.50
21210;BMP180;10762;42.206;25.326;2022-07-10T05:06:38;99016.00;;;25.60
21210;BMP180;10762;42.206;25.326;2022-07-10T05:09:04;99015.00;;;25.50
21210;BMP180;10762;42.206;25.326;2022-07-10T05:11:30;99016.00;;;25.50
21210;BMP180;10762;42.206;25.326;2022-07-10T05:13:57;99014.00;;;25.50
21210;BMP180;10762;42.206;25.326;2022-07-10T05:16:23;99017.00;;;25.60
21210;BMP180;10762;42.206;25.326;2022-07-10T05:18:48;99020.00;;;25.70
21210;BMP180;10762;42.206;25.326;2022-07-10T05:21:14;99014.00;;;25.80
21210;BMP180;10762;42.206;25.326;2022-07-10T05:23:40;99003.00;;;25.90
21210;BMP180;10762;42.206;25.326;2022-07-10T05:26:06;99018.00;;;26.10
21210;BMP180;10762;42.206;25.326;2022-07-10T05:28:32;99007.00;;;26.30
21210;BMP180;10762;42.206;25.326;2022-07-10T05:30:58;99003.00;;;26.50
21210;BMP180;10762;42.206;25.326;2022-07-10T05:33:24;99008.00;;;26.60
21210;BMP180;10762;42.206;25.326;2022-07-10T05:35:52;99001.00;;;26.60
21210;BMP180;10762;42.206;25.326;2022-07-10T05:38:17;99002.00;;;26.80
21210;BMP180;10762;42.206;25.326;2022-07-10T05:40:43;99003.00;;;26.80
21210;BMP180;10762;42.206;25.326;2022-07-10T05:43:09;99002.00;;;27.00
21210;BMP180;10762;42.206;25.326;2022-07-10T05:45:36;99002.00;;;27.00
21210;BMP180;10762;42.206;25.326;2022-07-10T05:48:02;98994.00;;;27.10
21210;BMP180;10762;42.206;25.326;2022-07-10T05:50:28;99010.00;;;27.40
21210;BMP180;10762;42.206;25.326;2022-07-10T05:52:55;99005.00;;;27.60
21210;BMP180;10762;42.206;25.326;2022-07-10T05:55:22;99005.00;;;27.80
21210;BMP180;10762;42.206;25.326;2022-07-10T05:57:47;99008.00;;;28.00
21210;BMP180;10762;42.206;25.326;2022-07-10T06:00:13;99003.00;;;28.10
21210;BMP180;10762;42.206;25.326;2022-07-10T06:02:40;99006.00;;;28.30
21210;BMP180;10762;42.206;25.326;2022-07-10T06:05:06;98996.00;;;28.40
21210;BMP180;10762;42.206;25.326;2022-07-10T06:07:33;99006.00;;;28.60
21210;BMP180;10762;42.206;25.326;2022-07-10T06:09:59;99003.00;;;28.80
21210;BMP180;10762;42.206;25.326;2022-07-10T06:12:25;99011.00;;;28.90
21210;BMP180;10762;42.206;25.326;2022-07-10T06:14:51;99014.00;;;28.80
21210;BMP180;10762;42.206;25.326;2022-07-10T06:17:17;99016.00;;;28.80
21210;BMP180;10762;42.206;25.326;2022-07-10T06:19:43;99011.00;;;28.50
21210;BMP180;10762;42.206;25.326;2022-07-10T06:22:08;99018.00;;;28.30
21210;BMP180;10762;42.206;25.326;2022-07-10T06:24:52;99014.00;;;28.30
21210;BMP180;10762;42.206;25.326;2022-07-10T06:27:18;99020.00;;;28.20
21210;BMP180;10762;42.206;25.326;2022-07-10T06:29:44;99024.00;;;28.20
21210;BMP180;10762;42.206;25.326;2022-07-10T06:32:10;99018.00;;;28.30
21210;BMP180;10762;42.206;25.326;2022-07-10T06:34:36;99026.00;;;28.30
21210;BMP180;10762;42.206;25.326;2022-07-10T06:37:01;99024.00;;;28.30
21210;BMP180;10762;42.206;25.326;2022-07-10T06:39:32;99022.00;;;28.40
21210;BMP180;10762;42.206;25.326;2022-07-10T06:42:02;99028.00;;;28.40
21210;BMP180;10762;42.206;25.326;2022-07-10T06:44:28;99020.00;;;28.40
21210;BMP180;10762;42.206;25.326;2022-07-10T06:46:54;99014.00;;;28.40
21210;BMP180;10762;42.206;25.326;2022-07-10T06:49:40;99021.00;;;28.50
21210;BMP180;10762;42.206;25.326;2022-07-10T06:52:06;99022.00;;;28.50
21210;BMP180;10762;42.206;25.326;2022-07-10T06:54:32;99022.00;;;28.70
21210;BMP180;10762;42.206;25.326;2022-07-10T06:56:58;99016.00;;;28.80
21210;BMP180;10762;42.206;25.326;2022-07-10T06:59:24;99019.00;;;29.00
21210;BMP180;10762;42.206;25.326;2022-07-10T07:01:50;99013.00;;;29.10
21210;BMP180;10762;42.206;25.326;2022-07-10T07:04:16;99021.00;;;29.10
21210;BMP180;10762;42.206;25.326;2022-07-10T07:06:42;99017.00;;;29.30
21210;BMP180;10762;42.206;25.326;2022-07-10T07:09:07;99023.00;;;29.50
21210;BMP180;10762;42.206;25.326;2022-07-10T07:11:33;99022.00;;;29.60
21210;BMP180;10762;42.206;25.326;2022-07-10T07:13:59;99017.00;;;29.60
21210;BMP180;10762;42.206;25.326;2022-07-10T07:16:25;99024.00;;;29.60
21210;BMP180;10762;42.206;25.326;2022-07-10T07:19:05;99019.00;;;29.70
21210;BMP180;10762;42.206;25.326;2022-07-10T07:21:32;99021.00;;;29.70
21210;BMP180;10762;42.206;25.326;2022-07-10T07:24:16;99014.00;;;29.70
21210;BMP180;10762;42.206;25.326;2022-07-10T07:26:46;99009.00;;;30.10
21210;BMP180;10762;42.206;25.326;2022-07-10T07:29:15;99017.00;;;30.50
21210;BMP180;10762;42.206;25.326;2022-07-10T07:31:42;99015.00;;;30.70
21210;BMP180;10762;42.206;25.326;2022-07-10T07:34:14;99021.00;;;30.70
21210;BMP180;10762;42.206;25.326;2022-07-10T07:36:40;99020.00;;;30.60
21210;BMP180;10762;42.206;25.326;2022-07-10T07:39:05;99017.00;;;30.70
21210;BMP180;10762;42.206;25.326;2022-07-10T07:41:31;99012.00;;;30.70
21210;BMP180;10762;42.206;25.326;2022-07-10T07:43:57;99018.00;;;30.70
21210;BMP180;10762;42.206;25.326;2022-07-10T07:46:23;99013.00;;;30.60
21210;BMP180;10762;42.206;25.326;2022-07-10T07:48:50;99015.00;;;30.50
21210;BMP180;10762;42.206;25.326;2022-07-10T07:51:16;99017.00;;;30.50
21210;BMP180;10762;42.206;25.326;2022-07-10T07:53:41;99014.00;;;30.50
21210;BMP180;10762;42.206;25.326;2022-07-10T07:56:07;99016.00;;;30.50
21210;BMP180;10762;42.206;25.326;2022-07-10T07:58:33;99016.00;;;30.50
21210;BMP180;10762;42.206;25.326;2022-07-10T08:00:59;99018.00;;;30.60
21210;BMP180;10762;42.206;25.326;2022-07-10T08:03:25;99017.00;;;30.70
21210;BMP180;10762;42.206;25.326;2022-07-10T08:05:51;99022.00;;;30.70
21210;BMP180;10762;42.206;25.326;2022-07-10T08:08:16;99019.00;;;30.70
21210;BMP180;10762;42.206;25.326;2022-07-10T08:10:42;99023.00;;;30.80
21210;BMP180;10762;42.206;25.326;2022-07-10T08:13:08;99013.00;;;30.90
21210;BMP180;10762;42.206;25.326;2022-07-10T08:15:34;99019.00;;;30.80
21210;BMP180;10762;42.206;25.326;2022-07-10T08:18:00;99012.00;;;30.80
21210;BMP180;10762;42.206;25.326;2022-07-10T08:20:30;99016.00;;;30.90
21210;BMP180;10762;42.206;25.326;2022-07-10T08:22:56;99013.00;;;30.80
21210;BMP180;10762;42.206;25.326;2022-07-10T08:25:23;99011.00;;;30.70
21210;BMP180;10762;42.206;25.326;2022-07-10T08:27:49;99012.00;;;30.70
21210;BMP180;10762;42.206;25.326;2022-07-10T08:30:19;99011.00;;;30.90
21210;BMP180;10762;42.206;25.326;2022-07-10T08:32:44;99015.00;;;31.00
21210;BMP180;10762;42.206;25.326;2022-07-10T08:35:10;99014.00;;;31.10
21210;BMP180;10762;42.206;25.326;2022-07-10T08:37:37;99010.00;;;31.20
21210;BMP180;10762;42.206;25.326;2022-07-10T08:40:05;99013.00;;;31.30
21210;BMP180;10762;42.206;25.326;2022-07-10T08:42:32;99005.00;;;31.50
21210;BMP180;10762;42.206;25.326;2022-07-10T08:44:58;99007.00;;;31.70
21210;BMP180;10762;42.206;25.326;2022-07-10T08:47:25;99004.00;;;32.00
21210;BMP180;10762;42.206;25.326;2022-07-10T08:49:51;99007.00;;;32.30
21210;BMP180;10762;42.206;25.326;2022-07-10T08:52:26;99014.00;;;32.30
21210;BMP180;10762;42.206;25.326;2022-07-10T08:54:54;99013.00;;;32.20
21210;BMP180;10762;42.206;25.326;2022-07-10T08:57:22;99009.00;;;32.10
21210;BMP180;10762;42.206;25.326;2022-07-10T08:59:48;99019.00;;;32.10
21210;BMP180;10762;42.206;25.326;2022-07-10T09:02:14;99019.00;;;32.00
21210;BMP180;10762;42.206;25.326;2022-07-10T09:04:40;99018.00;;;31.90
21210;BMP180;10762;42.206;25.326;2022-07-10T09:07:05;99009.00;;;31.80
21210;BMP180;10762;42.206;25.326;2022-07-10T09:09:31;99013.00;;;31.90
21210;BMP180;10762;42.206;25.326;2022-07-10T09:11:57;99010.00;;;31.90
21210;BMP180;10762;42.206;25.326;2022-07-10T09:14:26;99003.00;;;31.90
21210;BMP180;10762;42.206;25.326;2022-07-10T09:16:53;99014.00;;;32.10
21210;BMP180;10762;42.206;25.326;2022-07-10T09:22:04;99009.00;;;31.80
21210;BMP180;10762;42.206;25.326;2022-07-10T09:24:38;99011.00;;;31.80
21210;BMP180;10762;42.206;25.326;2022-07-10T09:27:05;99013.00;;;31.80
21210;BMP180;10762;42.206;25.326;2022-07-10T09:29:31;99009.00;;;31.70
21210;BMP180;10762;42.206;25.326;2022-07-10T09:31:59;99016.00;;;31.60
21210;BMP180;10762;42.206;25.326;2022-07-10T09:37:19;99013.00;;;31.80
21210;BMP180;10762;42.206;25.326;2022-07-10T09:42:32;99016.00;;;31.80
21210;BMP180;10762;42.206;25.326;2022-07-10T09:47:40;99014.00;;;31.80
21210;BMP180;10762;42.206;25.326;2022-07-10T09:50:25;99024.00;;;31.90
21210;BMP180;10762;42.206;25.326;2022-07-10T09:53:02;99019.00;;;32.00
21210;BMP180;10762;42.206;25.326;2022-07-10T09:55:31;99020.00;;;31.90
21210;BMP180;10762;42.206;25.326;2022-07-10T09:58:08;99024.00;;;31.70
21210;BMP180;10762;42.206;25.326;2022-07-10T10:00:39;99021.00;;;31.70
21210;BMP180;10762;42.206;25.326;2022-07-10T10:03:08;99022.00;;;31.70
21210;BMP180;10762;42.206;25.326;2022-07-10T10:05:38;99027.00;;;31.80
21210;BMP180;10762;42.206;25.326;2022-07-10T10:08:10;99025.00;;;31.90
21210;BMP180;10762;42.206;25.326;2022-07-10T10:10:43;99015.00;;;32.00
21210;BMP180;10762;42.206;25.326;2022-07-10T10:13:10;99023.00;;;32.00
21210;BMP180;10762;42.206;25.326;2022-07-10T10:15:37;99017.00;;;32.10
21210;BMP180;10762;42.206;25.326;2022-07-10T10:18:03;99013.00;;;32.10
21210;BMP180;10762;42.206;25.326;2022-07-10T10:20:32;99011.00;;;32.00
21210;BMP180;10762;42.206;25.326;2022-07-10T10:23:11;99011.00;;;32.10
21210;BMP180;10762;42.206;25.326;2022-07-10T10:25:38;99000.00;;;32.00
21210;BMP180;10762;42.206;25.326;2022-07-10T10:28:09;99013.00;;;31.90
21210;BMP180;10762;42.206;25.326;2022-07-10T10:30:37;99019.00;;;32.00
21210;BMP180;10762;42.206;25.326;2022-07-10T10:36:09;99015.00;;;32.00
21210;BMP180;10762;42.206;25.326;2022-07-10T10:41:38;99001.00;;;32.10
21210;BMP180;10762;42.206;25.326;2022-07-10T10:46:35;99014.00;;;32.30
21210;BMP180;10762;42.206;25.326;2022-07-10T10:49:05;99008.00;;;32.20
21210;BMP180;10762;42.206;25.326;2022-07-10T10:52:09;99008.00;;;32.30
21210;BMP180;10762;42.206;25.326;2022-07-10T11:00:15;99001.00;;;32.50
21210;BMP180;10762;42.206;25.326;2022-07-10T11:03:12;99002.00;;;32.80
21210;BMP180;10762;42.206;25.326;2022-07-10T11:08:04;98993.00;;;33.00
21210;BMP180;10762;42.206;25.326;2022-07-10T11:15:47;98988.00;;;32.70
21210;BMP180;10762;42.206;25.326;2022-07-10T11:18:19;99000.00;;;32.70
21210;BMP180;10762;42.206;25.326;2022-07-10T11:20:49;99001.00;;;32.90
21210;BMP180;10762;42.206;25.326;2022-07-10T11:26:02;99000.00;;;33.20
21210;BMP180;10762;42.206;25.326;2022-07-10T11:31:08;98991.00;;;33.30
21210;BMP180;10762;42.206;25.326;2022-07-10T11:33:42;98989.00;;;33.40
21210;BMP180;10762;42.206;25.326;2022-07-10T11:36:13;98988.00;;;33.50
21210;BMP180;10762;42.206;25.326;2022-07-10T11:38:41;98992.00;;;33.40
21210;BMP180;10762;42.206;25.326;2022-07-10T11:41:20;98986.00;;;33.50
21210;BMP180;10762;42.206;25.326;2022-07-10T11:43:55;98982.00;;;33.50
21210;BMP180;10762;42.206;25.326;2022-07-10T11:46:24;98978.00;;;33.30
21210;BMP180;10762;42.206;25.326;2022-07-10T11:48:51;98974.00;;;33.30
21210;BMP180;10762;42.206;25.326;2022-07-10T11:54:01;98977.00;;;33.50
21210;BMP180;10762;42.206;25.326;2022-07-10T11:56:29;98975.00;;;33.40
21210;BMP180;10762;42.206;25.326;2022-07-10T11:59:02;98967.00;;;33.60
21210;BMP180;10762;42.206;25.326;2022-07-10T12:01:29;98970.00;;;33.70
21210;BMP180;10762;42.206;25.326;2022-07-10T12:06:33;98968.00;;;33.60
21210;BMP180;10762;42.206;25.326;2022-07-10T12:09:09;98963.00;;;33.50
21210;BMP180;10762;42.206;25.326;2022-07-10T12:11:36;98959.00;;;33.30
21210;BMP180;10762;42.206;25.326;2022-07-10T12:14:28;98957.00;;;33.20
21210;BMP180;10762;42.206;25.326;2022-07-10T12:16:56;98956.00;;;33.20
21210;BMP180;10762;42.206;25.326;2022-07-10T12:19:24;98959.00;;;33.20
21210;BMP180;10762;42.206;25.326;2022-07-10T12:21:50;98949.00;;;33.20
21210;BMP180;10762;42.206;25.326;2022-07-10T12:24:18;98950.00;;;33.20
21210;BMP180;10762;42.206;25.326;2022-07-10T12:26:45;98943.00;;;33.30
21210;BMP180;10762;42.206;25.326;2022-07-10T12:29:22;98947.00;;;33.40
21210;BMP180;10762;42.206;25.326;2022-07-10T12:31:50;98939.00;;;33.60
21210;BMP180;10762;42.206;25.326;2022-07-10T12:34:17;98940.00;;;33.80
21210;BMP180;10762;42.206;25.326;2022-07-10T12:36:50;98939.00;;;33.70
21210;BMP180;10762;42.206;25.326;2022-07-10T12:41:54;98945.00;;;33.70
21210;BMP180;10762;42.206;25.326;2022-07-10T12:44:40;98936.00;;;33.90
21210;BMP180;10762;42.206;25.326;2022-07-10T12:47:12;98932.00;;;34.40
21210;BMP180;10762;42.206;25.326;2022-07-10T12:55:15;98937.00;;;34.90
21210;BMP180;10762;42.206;25.326;2022-07-10T12:57:52;98930.00;;;34.80
21210;BMP180;10762;42.206;25.326;2022-07-10T13:00:20;98933.00;;;34.70
21210;BMP180;10762;42.206;25.326;2022-07-10T13:02:48;98926.00;;;34.50
21210;BMP180;10762;42.206;25.326;2022-07-10T13:05:36;98928.00;;;34.40
21210;BMP180;10762;42.206;25.326;2022-07-10T13:08:13;98929.00;;;34.50
21210;BMP180;10762;42.206;25.326;2022-07-10T13:10:48;98926.00;;;34.80
21210;BMP180;10762;42.206;25.326;2022-07-10T13:13:14;98925.00;;;34.70
21210;BMP180;10762;42.206;25.326;2022-07-10T13:15:40;98923.00;;;34.40
21210;BMP180;10762;42.206;25.326;2022-07-10T13:18:18;98913.00;;;34.20
21210;BMP180;10762;42.206;25.326;2022-07-10T13:20:44;98909.00;;;34.10
21210;BMP180;10762;42.206;25.326;2022-07-10T13:23:11;98908.00;;;34.20
21210;BMP180;10762;42.206;25.326;2022-07-10T13:25:38;98905.00;;;34.30
21210;BMP180;10762;42.206;25.326;2022-07-10T13:28:05;98903.00;;;34.50
21210;BMP180;10762;42.206;25.326;2022-07-10T13:30:31;98901.00;;;34.60
21210;BMP180;10762;42.206;25.326;2022-07-10T13:32:57;98903.00;;;34.50
21210;BMP180;10762;42.206;25.326;2022-07-10T13:35:23;98896.00;;;34.40
21210;BMP180;10762;42.206;25.326;2022-07-10T13:37:49;98898.00;;;34.60
21210;BMP180;10762;42.206;25.326;2022-07-10T13:40:15;98887.00;;;34.60
21210;BMP180;10762;42.206;25.326;2022-07-10T13:42:41;98901.00;;;34.60
21210;BMP180;10762;42.206;25.326;2022-07-10T13:45:07;98901.00;;;34.60
21210;BMP180;10762;42.206;25.326;2022-07-10T13:47:34;98899.00;;;34.50
21210;BMP180;10762;42.206;25.326;2022-07-10T13:50:00;98899.00;;;34.50
21210;BMP180;10762;42.206;25.326;2022-07-10T13:52:26;98905.00;;;34.70
21210;BMP180;10762;42.206;25.326;2022-07-10T13:54:52;98904.00;;;34.70
21210;BMP180;10762;42.206;25.326;2022-07-10T13:57:18;98904.00;;;34.90
21210;BMP180;10762;42.206;25.326;2022-07-10T13:59:43;98905.00;;;34.90
21210;BMP180;10762;42.206;25.326;2022-07-10T14:02:11;98896.00;;;34.90
21210;BMP180;10762;42.206;25.326;2022-07-10T14:04:37;98895.00;;;35.10
21210;BMP180;10762;42.206;25.326;2022-07-10T14:07:04;98889.00;;;35.30
21210;BMP180;10762;42.206;25.326;2022-07-10T14:09:29;98892.00;;;35.40
21210;BMP180;10762;42.206;25.326;2022-07-10T14:11:55;98890.00;;;35.30
21210;BMP180;10762;42.206;25.326;2022-07-10T14:14:21;98883.00;;;35.30
21210;BMP180;10762;42.206;25.326;2022-07-10T14:16:48;98884.00;;;35.10
21210;BMP180;10762;42.206;25.326;2022-07-10T14:19:15;98875.00;;;35.10
21210;BMP180;10762;42.206;25.326;2022-07-10T14:21:41;98880.00;;;35.00
21210;BMP180;10762;42.206;25.326;2022-07-10T14:24:07;98880.00;;;35.00
21210;BMP180;10762;42.206;25.326;2022-07-10T14:26:33;98875.00;;;35.00
21210;BMP180;10762;42.206;25.326;2022-07-10T14:29:04;98873.00;;;34.90
21210;BMP180;10762;42.206;25.326;2022-07-10T14:31:31;98871.00;;;34.90
21210;BMP180;10762;42.206;25.326;2022-07-10T14:34:02;98871.00;;;34.80
21210;BMP180;10762;42.206;25.326;2022-07-10T14:36:30;98869.00;;;34.80
21210;BMP180;10762;42.206;25.326;2022-07-10T14:38:56;98873.00;;;34.80
21210;BMP180;10762;42.206;25.326;2022-07-10T14:41:23;98871.00;;;34.80
21210;BMP180;10762;42.206;25.326;2022-07-10T14:43:49;98874.00;;;34.80
21210;BMP180;10762;42.206;25.326;2022-07-10T14:46:15;98868.00;;;34.90
21210;BMP180;10762;42.206;25.326;2022-07-10T14:48:41;98870.00;;;34.80
21210;BMP180;10762;42.206;25.326;2022-07-10T14:51:07;98869.00;;;34.80
21210;BMP180;10762;42.206;25.326;2022-07-10T14:53:33;98864.00;;;34.60
21210;BMP180;10762;42.206;25.326;2022-07-10T14:56:04;98868.00;;;34.60
21210;BMP180;10762;42.206;25.326;2022-07-10T14:58:31;98863.00;;;34.70
21210;BMP180;10762;42.206;25.326;2022-07-10T15:00:57;98858.00;;;34.80
21210;BMP180;10762;42.206;25.326;2022-07-10T15:03:23;98849.00;;;34.60
21210;BMP180;10762;42.206;25.326;2022-07-10T15:05:50;98849.00;;;34.50
21210;BMP180;10762;42.206;25.326;2022-07-10T15:08:22;98848.00;;;34.30
21210;BMP180;10762;42.206;25.326;2022-07-10T15:10:49;98857.00;;;34.40
21210;BMP180;10762;42.206;25.326;2022-07-10T15:13:15;98854.00;;;34.20
21210;BMP180;10762;42.206;25.326;2022-07-10T15:15:41;98851.00;;;34.20
21210;BMP180;10762;42.206;25.326;2022-07-10T15:18:07;98854.00;;;34.20
21210;BMP180;10762;42.206;25.326;2022-07-10T15:20:33;98867.00;;;34.10
21210;BMP180;10762;42.206;25.326;2022-07-10T15:22:59;98857.00;;;34.10